Time;durP1;ratioP1;P1;durP2;ratioP2;P2;SDS_P1;SDS_P2;PMS_P1;PMS_P2;Temp;Humidity;BMP_temperature;BMP_pressure;BME280_temperature;BME280_humidity;BME280_pressure;Samples;Min_cycle;Max_cycle;Signal;HPM_P1;HPM_P2
2022/11/01 00:02:03;;;;;;;24.97;16.00;;;12.40;99.90;;;;;;5054185;28;20598;-66
2022/11/01 00:04:31;;;;;;;24.30;16.83;;;12.50;99.90;;;;;;5048160;28;20642;-67
2022/11/01 00:06:59;;;;;;;23.00;18.20;;;12.50;99.90;;;;;;5051912;28;20640;-67
2022/11/01 00:09:27;;;;;;;18.33;15.80;;;12.50;99.90;;;;;;5053286;28;20623;-66
2022/11/01 00:11:55;;;;;;;20.63;16.10;;;12.50;99.90;;;;;;5054794;28;20607;-66
2022/11/01 00:14:25;;;;;;;21.80;17.53;;;12.50;99.90;;;;;;5055548;28;20659;-66
2022/11/01 00:16:53;;;;;;;19.77;17.30;;;12.60;99.90;;;;;;5055705;28;21017;-67
2022/11/01 00:19:20;;;;;;;19.53;17.33;;;12.60;99.90;;;;;;5054310;28;20634;-67
2022/11/01 00:21:48;;;;;;;21.10;17.50;;;12.70;99.90;;;;;;5059102;28;21169;-66
2022/11/01 00:24:16;;;;;;;21.00;17.77;;;12.70;99.90;;;;;;5038675;28;20590;-67
2022/11/01 00:26:45;;;;;;;27.93;17.23;;;12.70;99.90;;;;;;5057016;28;21052;-67
2022/11/01 00:29:13;;;;;;;27.43;16.03;;;12.70;99.90;;;;;;5057460;28;20582;-66
2022/11/01 00:31:42;;;;;;;20.73;15.77;;;12.70;99.90;;;;;;5060459;28;20598;-66
2022/11/01 00:34:10;;;;;;;28.90;17.27;;;12.70;99.90;;;;;;5043606;28;20643;-66
2022/11/01 00:36:38;;;;;;;22.53;15.80;;;12.80;99.90;;;;;;5064201;28;20634;-65
2022/11/01 00:39:06;;;;;;;17.80;15.90;;;12.80;99.90;;;;;;5060999;28;20602;-65
2022/11/01 00:41:35;;;;;;;19.23;15.60;;;12.80;99.90;;;;;;5057535;28;20663;-66
2022/11/01 00:44:04;;;;;;;29.83;15.80;;;12.80;99.90;;;;;;5065862;28;20639;-65
2022/11/01 00:46:32;;;;;;;23.57;16.50;;;12.70;99.90;;;;;;5055014;28;20598;-65
2022/11/01 00:49:02;;;;;;;20.33;16.67;;;12.70;99.90;;;;;;5059615;28;21231;-66
2022/11/01 00:51:30;;;;;;;24.20;17.00;;;12.70;99.90;;;;;;5076683;28;20651;-66
2022/11/01 00:53:58;;;;;;;26.77;16.67;;;12.80;99.90;;;;;;5059728;28;20627;-66
2022/11/01 00:56:26;;;;;;;20.53;15.20;;;12.80;99.90;;;;;;5067463;28;20666;-66
2022/11/01 00:58:54;;;;;;;21.57;16.00;;;12.80;99.90;;;;;;5061313;28;20608;-65
2022/11/01 01:01:22;;;;;;;23.20;17.10;;;12.80;99.90;;;;;;5065676;28;20656;-66
2022/11/01 01:03:50;;;;;;;27.40;16.53;;;12.80;99.90;;;;;;5063970;28;20207;-65
2022/11/01 01:06:19;;;;;;;25.63;17.60;;;12.80;99.90;;;;;;5060280;28;20651;-65
2022/11/01 01:08:47;;;;;;;24.23;17.50;;;12.80;99.90;;;;;;5060820;28;20590;-65
2022/11/01 01:11:15;;;;;;;25.33;17.57;;;12.80;99.90;;;;;;5059928;28;20605;-65
2022/11/01 01:13:43;;;;;;;20.93;17.00;;;12.80;99.90;;;;;;5055127;28;20634;-65
2022/11/01 01:16:13;;;;;;;20.53;16.30;;;12.80;99.90;;;;;;5055127;28;20703;-65
2022/11/01 01:18:41;;;;;;;22.63;17.67;;;12.80;99.90;;;;;;5060535;28;20622;-65
2022/11/01 01:21:09;;;;;;;23.87;17.30;;;12.80;99.90;;;;;;5056438;28;20622;-65
2022/11/01 01:23:38;;;;;;;25.03;17.87;;;12.80;99.90;;;;;;5056019;28;20974;-66
2022/11/01 01:26:07;;;;;;;27.33;18.70;;;12.90;99.90;;;;;;5060970;28;20692;-66
2022/11/01 01:28:35;;;;;;;30.20;19.13;;;12.90;99.90;;;;;;5060559;28;20693;-66
2022/11/01 01:31:06;;;;;;;23.10;17.40;;;12.90;99.90;;;;;;5061370;28;20678;-66
2022/11/01 01:33:35;;;;;;;22.90;17.30;;;12.90;99.90;;;;;;5071062;28;20688;-66
2022/11/01 01:36:04;;;;;;;20.53;16.13;;;12.90;99.90;;;;;;5069338;28;20630;-66
2022/11/01 01:38:32;;;;;;;23.23;16.43;;;12.90;99.90;;;;;;5072449;28;20626;-66
2022/11/01 01:43:44;;;;;;;21.67;16.80;;;13.00;99.90;;;;;;5073201;28;20711;-66
2022/11/01 01:46:12;;;;;;;20.10;16.80;;;13.00;99.90;;;;;;5067670;28;20634;-66
2022/11/01 01:48:42;;;;;;;22.13;18.03;;;13.00;99.90;;;;;;5076976;28;20744;-66
2022/11/01 01:51:14;;;;;;;26.23;18.17;;;13.10;99.90;;;;;;5077893;28;20609;-66
2022/11/01 01:53:46;;;;;;;28.10;17.67;;;13.10;99.90;;;;;;5070088;28;20621;-66
2022/11/01 01:56:20;;;;;;;21.13;17.33;;;13.10;99.90;;;;;;5069496;28;20617;-66
2022/11/01 01:58:53;;;;;;;23.43;17.60;;;13.10;99.90;;;;;;5065698;28;20652;-66
2022/11/01 02:01:21;;;;;;;25.27;16.73;;;13.10;99.90;;;;;;5065812;28;20642;-66
2022/11/01 02:03:50;;;;;;;24.17;16.97;;;13.10;99.90;;;;;;5061373;28;20979;-66
2022/11/01 02:06:21;;;;;;;22.03;17.23;;;13.10;99.90;;;;;;5053817;28;21028;-66
2022/11/01 02:08:53;;;;;;;23.77;18.27;;;13.10;99.90;;;;;;5061713;28;21204;-66
2022/11/01 02:11:23;;;;;;;19.00;16.73;;;13.00;99.90;;;;;;5054943;28;20598;-65
2022/11/01 02:13:51;;;;;;;26.50;18.90;;;13.10;99.90;;;;;;5054659;28;20601;-65
2022/11/01 02:16:37;;;;;;;26.50;19.30;;;13.10;99.90;;;;;;5058009;28;20626;-65
2022/11/01 02:19:39;;;;;;;34.57;20.77;;;13.10;99.90;;;;;;5074835;28;20553;-65
2022/11/01 02:22:10;;;;;;;28.40;21.80;;;13.10;99.90;;;;;;5050245;28;21229;-66
2022/11/01 02:25:09;;;;;;;26.37;20.70;;;13.10;99.90;;;;;;5054241;28;20618;-65
2022/11/01 02:27:51;;;;;;;25.10;21.20;;;13.20;99.90;;;;;;5059991;28;20643;-65
2022/11/01 02:30:21;;;;;;;34.60;22.60;;;13.20;99.90;;;;;;5063829;28;20577;-65
2022/11/01 02:33:01;;;;;;;30.23;22.30;;;13.30;99.90;;;;;;5054316;28;20610;-65
2022/11/01 02:35:41;;;;;;;43.77;23.83;;;13.20;99.90;;;;;;5054619;28;21226;-65
2022/11/01 02:38:14;;;;;;;34.67;23.60;;;13.10;99.90;;;;;;5034800;28;21123;-65
2022/11/01 02:40:52;;;;;;;38.50;25.73;;;13.10;99.90;;;;;;5051854;28;20622;-65
2022/11/01 02:43:25;;;;;;;40.33;26.80;;;13.10;99.90;;;;;;5054097;28;21172;-65
2022/11/01 02:45:53;;;;;;;41.60;26.70;;;13.10;99.90;;;;;;5057577;28;20618;-65
2022/11/01 02:48:25;;;;;;;33.63;26.60;;;13.10;99.90;;;;;;5073747;28;21025;-65
2022/11/01 02:50:56;;;;;;;39.80;28.63;;;13.10;99.90;;;;;;5071600;28;20990;-65
2022/11/01 02:53:24;;;;;;;33.03;28.13;;;13.10;99.90;;;;;;5062717;28;20584;-65
2022/11/01 02:55:53;;;;;;;49.50;28.00;;;13.10;99.90;;;;;;5071626;28;20609;-66
2022/11/01 02:58:24;;;;;;;39.67;28.60;;;13.10;99.90;;;;;;5070410;28;20650;-66
2022/11/01 03:00:52;;;;;;;38.97;28.13;;;13.10;99.90;;;;;;5064601;28;20584;-66
2022/11/01 03:03:25;;;;;;;45.63;29.30;;;13.10;99.90;;;;;;5057693;28;20633;-66
2022/11/01 03:06:02;;;;;;;46.13;27.60;;;13.10;99.90;;;;;;5066053;28;21225;-66
2022/11/01 03:08:35;;;;;;;39.40;27.47;;;13.10;99.90;;;;;;5052925;28;21127;-66
2022/11/01 03:11:09;;;;;;;42.77;28.07;;;13.10;99.90;;;;;;5055424;28;20602;-66
2022/11/01 03:13:52;;;;;;;41.47;29.13;;;13.20;99.90;;;;;;5042878;28;20606;-66
2022/11/01 03:16:28;;;;;;;42.87;29.30;;;13.20;99.90;;;;;;5060739;28;20576;-66
2022/11/01 03:19:06;;;;;;;37.33;28.90;;;13.30;99.90;;;;;;5073523;28;20572;-66
2022/11/01 03:21:39;;;;;;;43.37;30.10;;;13.30;99.90;;;;;;5073651;28;20610;-66
2022/11/01 03:24:16;;;;;;;40.53;28.67;;;13.30;99.90;;;;;;5072947;28;20614;-66
2022/11/01 03:26:49;;;;;;;39.77;29.23;;;13.30;99.90;;;;;;5069123;28;20616;-66
2022/11/01 03:29:22;;;;;;;42.23;31.00;;;13.30;99.90;;;;;;5044955;28;20664;-66
2022/11/01 03:31:51;;;;;;;38.60;28.97;;;13.30;99.90;;;;;;5053563;28;20608;-66
2022/11/01 03:34:21;;;;;;;36.93;27.17;;;13.30;99.90;;;;;;5053223;28;20619;-66
2022/11/01 03:36:52;;;;;;;37.07;28.40;;;13.30;99.90;;;;;;5058265;28;20680;-66
2022/11/01 03:39:25;;;;;;;43.63;27.43;;;13.40;99.90;;;;;;5073072;28;20576;-66
2022/11/01 03:41:58;;;;;;;34.63;26.23;;;13.40;99.90;;;;;;5072313;28;20625;-66
2022/11/01 03:44:30;;;;;;;39.00;27.07;;;13.40;99.90;;;;;;5060265;28;20657;-66
2022/11/01 03:46:58;;;;;;;40.87;27.47;;;13.40;99.90;;;;;;5060227;28;20605;-66
2022/11/01 03:49:27;;;;;;;38.90;28.37;;;13.40;99.90;;;;;;5071093;28;20610;-66
2022/11/01 03:51:56;;;;;;;50.13;31.27;;;13.50;99.90;;;;;;5072765;28;20604;-66
2022/11/01 03:54:26;;;;;;;42.07;29.27;;;13.50;99.90;;;;;;5057377;28;20634;-66
2022/11/01 03:56:54;;;;;;;38.53;26.47;;;13.40;99.90;;;;;;5058873;28;21320;-66
2022/11/01 03:59:22;;;;;;;40.37;27.67;;;13.40;99.90;;;;;;5069610;28;20621;-66
2022/11/01 04:01:50;;;;;;;33.10;26.23;;;13.40;99.90;;;;;;5056506;28;20666;-66
2022/11/01 04:04:18;;;;;;;37.10;27.53;;;13.40;99.90;;;;;;5040918;28;20626;-66
2022/11/01 04:06:47;;;;;;;32.30;26.33;;;13.40;99.90;;;;;;5040406;28;20714;-66
2022/11/01 04:09:15;;;;;;;32.80;26.30;;;13.40;99.90;;;;;;5043316;28;20632;-66
2022/11/01 04:11:43;;;;;;;39.33;27.53;;;13.40;99.90;;;;;;5032103;28;20627;-66
2022/11/01 04:22:29;;;;;;;32.13;24.07;;;13.40;99.90;;;;;;5052241;28;20570;-66
2022/11/01 04:24:57;;;;;;;30.30;24.20;;;13.40;99.90;;;;;;5053244;28;20615;-66
2022/11/01 04:27:25;;;;;;;31.47;23.73;;;13.50;99.90;;;;;;5052788;28;20629;-65
2022/11/01 04:29:53;;;;;;;31.60;23.77;;;13.50;99.90;;;;;;5052764;28;21039;-67
2022/11/01 04:32:21;;;;;;;31.53;22.60;;;13.60;99.90;;;;;;5052479;28;21140;-65
2022/11/01 04:34:49;;;;;;;29.37;22.60;;;13.60;99.90;;;;;;5052139;28;21161;-65
2022/11/01 04:37:16;;;;;;;30.77;23.57;;;13.60;99.90;;;;;;5065474;28;20958;-65
2022/11/01 04:39:46;;;;;;;29.93;22.47;;;13.60;99.90;;;;;;5070594;28;20996;-65
2022/11/01 04:42:14;;;;;;;32.33;21.73;;;13.60;99.90;;;;;;5072118;28;20641;-65
2022/11/01 04:44:42;;;;;;;27.20;21.13;;;13.60;99.90;;;;;;5057605;28;21169;-65
2022/11/01 04:47:10;;;;;;;28.73;19.53;;;13.70;99.90;;;;;;5052169;28;20918;-65
2022/11/01 04:49:38;;;;;;;29.10;19.23;;;13.70;99.90;;;;;;5052126;28;20628;-65
2022/11/01 04:52:06;;;;;;;28.87;19.50;;;13.70;99.90;;;;;;5065437;28;20612;-64
2022/11/01 04:54:34;;;;;;;40.50;30.30;;;13.70;99.90;;;;;;5063834;28;21147;-65
2022/11/01 04:57:03;;;;;;;41.17;28.60;;;13.70;99.90;;;;;;5072010;28;20624;-65
2022/11/01 04:59:31;;;;;;;31.33;20.13;;;13.60;99.90;;;;;;5068217;28;20610;-65
2022/11/01 05:01:59;;;;;;;27.93;19.80;;;13.60;99.90;;;;;;5070164;28;20600;-65
2022/11/01 05:04:27;;;;;;;26.27;21.37;;;13.60;99.90;;;;;;5071623;28;21018;-65
2022/11/01 05:06:59;;;;;;;29.07;21.97;;;13.50;99.90;;;;;;5070909;28;20696;-65
2022/11/01 05:09:27;;;;;;;32.30;21.23;;;13.50;99.90;;;;;;5059693;28;20606;-65
2022/11/01 05:11:55;;;;;;;28.60;22.00;;;13.50;99.90;;;;;;5043505;28;20641;-65
2022/11/01 05:14:24;;;;;;;58.17;22.83;;;13.50;99.90;;;;;;5061290;28;20618;-65
2022/11/01 05:16:55;;;;;;;26.27;19.57;;;13.50;99.90;;;;;;5077342;28;20588;-65
2022/11/01 05:19:23;;;;;;;28.17;20.40;;;13.50;99.90;;;;;;5083739;28;20588;-66
2022/11/01 05:21:52;;;;;;;26.30;20.83;;;13.50;99.90;;;;;;5082151;28;20722;-65
2022/11/01 05:24:20;;;;;;;33.97;28.30;;;13.50;99.90;;;;;;5083212;28;20659;-65
2022/11/01 05:26:49;;;;;;;31.00;22.80;;;13.50;99.90;;;;;;5067392;28;20655;-65
2022/11/01 05:29:17;;;;;;;25.50;19.00;;;13.40;99.90;;;;;;5060851;28;20631;-65
2022/11/01 05:31:47;;;;;;;24.63;21.37;;;13.50;99.90;;;;;;5072850;28;20656;-65
2022/11/01 05:34:15;;;;;;;29.93;24.07;;;13.50;99.90;;;;;;5085076;28;20595;-65
2022/11/01 05:36:43;;;;;;;30.40;22.33;;;13.40;99.90;;;;;;5075075;28;20992;-65
2022/11/01 05:39:11;;;;;;;32.10;23.03;;;13.50;99.90;;;;;;5045859;28;20611;-65
2022/11/01 05:41:39;;;;;;;32.50;26.03;;;13.50;99.90;;;;;;5070361;28;21208;-65
2022/11/01 05:44:07;;;;;;;33.30;25.90;;;13.50;99.90;;;;;;5065824;28;20622;-66
2022/11/01 05:46:35;;;;;;;33.07;27.20;;;13.50;99.90;;;;;;5077139;28;20645;-65
2022/11/01 05:49:04;;;;;;;33.70;29.90;;;13.50;99.90;;;;;;5085957;28;21033;-65
2022/11/01 05:51:32;;;;;;;26.57;21.93;;;13.50;99.90;;;;;;5077628;28;20604;-65
2022/11/01 05:54:00;;;;;;;22.17;16.17;;;13.50;99.90;;;;;;5076679;28;20628;-65
2022/11/01 05:56:28;;;;;;;18.80;15.27;;;13.60;99.90;;;;;;5065391;28;21028;-65
2022/11/01 05:58:56;;;;;;;20.90;15.93;;;13.60;99.90;;;;;;5066794;28;20615;-65
2022/11/01 06:01:25;;;;;;;18.33;15.50;;;13.60;99.90;;;;;;5083672;28;20601;-65
2022/11/01 06:04:00;;;;;;;20.17;15.27;;;13.60;99.90;;;;;;5078686;28;20581;-66
2022/11/01 06:06:30;;;;;;;23.50;14.70;;;13.60;99.90;;;;;;5066425;28;20633;-66
2022/11/01 06:08:59;;;;;;;16.23;14.50;;;13.70;99.90;;;;;;5064993;28;20625;-66
2022/11/01 06:11:27;;;;;;;20.03;15.07;;;13.80;99.90;;;;;;5064751;28;20622;-66
2022/11/01 06:13:56;;;;;;;25.83;13.63;;;13.80;99.90;;;;;;5063841;28;20707;-66
2022/11/01 06:16:25;;;;;;;16.90;13.20;;;13.80;99.90;;;;;;5081363;28;20615;-66
2022/11/01 06:18:54;;;;;;;17.20;12.37;;;13.80;99.90;;;;;;5084562;28;20656;-66
2022/11/01 06:21:22;;;;;;;20.23;14.50;;;13.80;99.90;;;;;;5074344;28;20630;-66
2022/11/01 06:23:51;;;;;;;13.93;12.40;;;13.80;99.90;;;;;;5066684;28;20602;-66
2022/11/01 06:26:19;;;;;;;24.53;13.53;;;13.80;99.90;;;;;;5067572;28;20636;-66
2022/11/01 06:28:47;;;;;;;26.93;12.90;;;13.80;99.90;;;;;;5077689;28;20624;-64
2022/11/01 06:31:16;;;;;;;24.20;12.97;;;13.90;99.90;;;;;;5084520;28;20628;-68
2022/11/01 06:33:43;;;;;;;17.43;12.70;;;13.90;99.90;;;;;;5078160;28;21164;-66
2022/11/01 06:36:11;;;;;;;15.10;12.80;;;13.90;99.90;;;;;;5075868;28;20648;-66
2022/11/01 06:38:39;;;;;;;17.53;12.13;;;13.90;99.90;;;;;;5069112;28;20604;-66
2022/11/01 06:41:09;;;;;;;18.67;13.97;;;13.90;99.90;;;;;;5069656;28;20607;-66
2022/11/01 06:43:37;;;;;;;16.13;13.23;;;13.90;99.90;;;;;;5069793;28;21169;-66
2022/11/01 06:46:05;;;;;;;17.43;14.87;;;13.90;99.90;;;;;;5071755;28;20608;-66
2022/11/01 06:48:33;;;;;;;17.37;13.10;;;13.90;99.90;;;;;;5067357;28;21046;-66
2022/11/01 06:51:02;;;;;;;20.03;12.67;;;13.90;99.90;;;;;;5054010;28;20596;-66
2022/11/01 06:53:30;;;;;;;18.93;13.17;;;13.90;99.90;;;;;;5070698;28;20611;-66
2022/11/01 06:55:59;;;;;;;18.60;13.50;;;13.90;99.90;;;;;;5072487;28;20624;-66
2022/11/01 06:58:28;;;;;;;20.27;12.63;;;13.90;99.90;;;;;;5056269;28;20982;-66
2022/11/01 07:00:56;;;;;;;19.60;14.13;;;13.90;99.90;;;;;;5064598;28;20593;-66
2022/11/01 07:03:24;;;;;;;19.63;13.97;;;13.90;99.90;;;;;;5071925;28;20601;-65
2022/11/01 07:05:52;;;;;;;24.10;18.07;;;13.90;99.90;;;;;;5061360;28;21211;-65
2022/11/01 07:08:20;;;;;;;20.90;15.00;;;14.00;99.90;;;;;;5067833;28;20608;-65
2022/11/01 07:10:51;;;;;;;13.87;12.23;;;13.90;99.90;;;;;;5072550;28;20600;-65
2022/11/01 07:13:18;;;;;;;16.80;12.33;;;14.00;99.90;;;;;;5073121;28;20612;-65
2022/11/01 07:15:48;;;;;;;20.00;13.90;;;14.00;99.90;;;;;;5066314;28;20622;-65
2022/11/01 07:18:16;;;;;;;18.70;12.10;;;14.00;99.90;;;;;;5063582;28;21159;-65
2022/11/01 07:20:44;;;;;;;16.83;11.13;;;14.10;99.90;;;;;;5052246;28;20619;-65
2022/11/01 07:23:14;;;;;;;20.17;12.67;;;14.10;99.90;;;;;;5050554;28;20605;-65
2022/11/01 07:25:42;;;;;;;21.00;15.43;;;14.10;99.90;;;;;;5052105;28;20606;-65
2022/11/01 07:28:11;;;;;;;14.77;13.10;;;14.10;99.90;;;;;;5051994;28;20913;-65
2022/11/01 07:30:39;;;;;;;13.90;11.20;;;14.20;99.90;;;;;;5054414;28;20601;-65
2022/11/01 07:33:09;;;;;;;13.43;10.77;;;14.20;99.90;;;;;;5051504;28;20613;-65
2022/11/01 07:35:37;;;;;;;19.70;10.80;;;14.20;99.90;;;;;;5052254;28;20749;-65
2022/11/01 07:38:05;;;;;;;14.63;11.00;;;14.30;99.90;;;;;;5048575;28;20611;-65
2022/11/01 07:40:33;;;;;;;11.30;10.20;;;14.30;99.90;;;;;;5051939;28;20597;-65
2022/11/01 07:43:01;;;;;;;22.03;11.17;;;14.30;99.90;;;;;;5051067;28;20991;-65
2022/11/01 07:45:30;;;;;;;19.47;10.10;;;14.40;99.90;;;;;;5053568;28;21214;-65
2022/11/01 07:48:01;;;;;;;12.20;9.87;;;14.40;99.90;;;;;;5048996;28;21203;-65
2022/11/01 07:50:31;;;;;;;14.33;9.03;;;14.40;99.90;;;;;;5052832;28;20582;-65
2022/11/01 07:53:00;;;;;;;11.17;8.00;;;14.50;99.90;;;;;;5049902;28;20611;-64
2022/11/01 07:55:28;;;;;;;11.93;9.37;;;14.50;99.90;;;;;;5052592;28;20627;-65
2022/11/01 07:57:57;;;;;;;13.47;8.10;;;14.50;99.90;;;;;;5049473;28;20666;-65
2022/11/01 08:00:25;;;;;;;11.53;7.40;;;14.60;99.90;;;;;;5051893;28;20621;-65
2022/11/01 08:03:00;;;;;;;11.37;7.43;;;14.60;99.90;;;;;;5046691;28;20972;-66
2022/11/01 08:05:29;;;;;;;8.73;6.83;;;14.60;99.90;;;;;;5061394;28;21002;-66
2022/11/01 08:07:57;;;;;;;7.77;7.00;;;14.70;99.90;;;;;;5055539;28;20662;-66
2022/11/01 08:10:26;;;;;;;15.87;8.30;;;14.70;99.90;;;;;;5049384;28;20627;-67
2022/11/01 08:13:01;;;;;;;6.77;6.17;;;14.80;99.90;;;;;;5053543;28;20624;-67
2022/11/01 08:15:29;;;;;;;6.33;5.73;;;14.80;99.90;;;;;;5052321;28;20601;-64
2022/11/01 08:17:57;;;;;;;7.13;5.80;;;14.90;99.90;;;;;;5047021;28;21182;-66
2022/11/01 08:20:27;;;;;;;5.70;5.17;;;14.90;99.90;;;;;;5049487;28;20635;-64
2022/11/01 08:22:56;;;;;;;6.57;5.67;;;14.90;99.90;;;;;;5051751;28;20635;-65
2022/11/01 08:25:25;;;;;;;11.73;6.87;;;15.00;99.90;;;;;;5051126;28;20979;-65
2022/11/01 08:27:53;;;;;;;8.33;6.27;;;15.00;99.90;;;;;;5050948;28;20643;-65
2022/11/01 08:30:21;;;;;;;6.43;5.30;;;15.00;99.90;;;;;;5055930;28;20630;-65
2022/11/01 08:32:49;;;;;;;8.03;4.70;;;15.00;99.90;;;;;;5051610;28;20611;-65
2022/11/01 08:35:17;;;;;;;6.07;4.63;;;15.00;99.90;;;;;;5042318;28;21040;-65
2022/11/01 08:37:49;;;;;;;8.33;5.17;;;15.10;99.90;;;;;;5057853;28;20626;-65
2022/11/01 08:40:19;;;;;;;6.47;4.60;;;15.10;99.90;;;;;;5064340;28;20607;-65
2022/11/01 08:42:48;;;;;;;7.87;4.80;;;15.20;99.90;;;;;;5065991;28;20633;-65
2022/11/01 08:45:16;;;;;;;5.93;4.47;;;15.20;99.90;;;;;;5064106;28;20613;-65
2022/11/01 08:47:44;;;;;;;5.90;4.47;;;15.20;99.90;;;;;;5050497;28;21220;-65
2022/11/01 08:50:15;;;;;;;7.73;4.43;;;15.20;99.90;;;;;;5051862;28;20641;-65
2022/11/01 08:52:43;;;;;;;4.70;4.30;;;15.20;99.90;;;;;;5050888;28;21198;-65
2022/11/01 08:55:11;;;;;;;14.43;3.93;;;15.20;99.90;;;;;;5050634;28;20636;-63
2022/11/01 08:57:40;;;;;;;5.20;3.60;;;15.20;99.90;;;;;;5063603;28;21267;-65
2022/11/01 09:00:10;;;;;;;3.83;3.53;;;15.20;99.90;;;;;;5059725;28;20657;-66
2022/11/01 09:02:38;;;;;;;4.43;3.90;;;15.30;99.90;;;;;;5050533;28;20623;-65
2022/11/01 09:05:07;;;;;;;4.37;3.97;;;15.20;99.90;;;;;;5049921;28;20627;-64
2022/11/01 09:07:35;;;;;;;3.40;2.17;;;15.30;99.90;;;;;;5048436;28;20654;-64
2022/11/01 09:10:05;;;;;;;2.10;1.90;;;15.20;99.90;;;;;;5051896;28;20662;-66
2022/11/01 09:12:33;;;;;;;2.03;1.70;;;15.20;99.90;;;;;;5049659;28;20619;-67
2022/11/01 09:15:03;;;;;;;6.83;1.83;;;15.10;99.90;;;;;;5049412;28;20644;-68
2022/11/01 09:17:31;;;;;;;3.00;2.43;;;14.90;99.90;;;;;;5049195;28;20650;-67
2022/11/01 09:19:59;;;;;;;4.77;1.63;;;14.90;99.90;;;;;;5050895;28;20589;-67
2022/11/01 09:22:28;;;;;;;7.10;1.93;;;14.80;99.90;;;;;;5051498;28;20641;-67
2022/11/01 09:24:57;;;;;;;6.40;2.20;;;14.80;99.90;;;;;;5052000;28;20623;-67
2022/11/01 09:27:25;;;;;;;4.23;1.90;;;14.80;99.90;;;;;;5049903;28;20646;-68
2022/11/01 09:29:53;;;;;;;6.37;2.20;;;14.80;99.90;;;;;;5046068;28;20662;-67
2022/11/01 09:32:23;;;;;;;3.83;1.73;;;14.80;99.90;;;;;;5050541;28;20615;-67
2022/11/01 09:34:51;;;;;;;5.23;1.77;;;14.90;99.90;;;;;;5051757;28;20951;-67
2022/11/01 09:37:18;;;;;;;6.33;1.80;;;14.90;99.90;;;;;;5051599;28;20623;-68
2022/11/01 09:39:46;;;;;;;3.73;2.33;;;14.90;99.90;;;;;;5051754;28;20623;-68
2022/11/01 09:42:25;;;;;;;5.67;1.70;;;15.00;99.90;;;;;;5051287;28;20637;-68
2022/11/01 09:44:55;;;;;;;2.80;1.60;;;15.00;99.90;;;;;;5051058;28;20604;-68
2022/11/01 09:47:28;;;;;;;6.27;2.30;;;15.20;99.90;;;;;;5051887;28;20642;-68
2022/11/01 09:50:04;;;;;;;2.67;1.63;;;15.20;99.90;;;;;;5051833;28;20658;-67
2022/11/01 09:52:32;;;;;;;3.00;1.60;;;15.40;99.90;;;;;;5051365;28;20606;-67
2022/11/01 09:55:00;;;;;;;5.33;1.90;;;15.40;99.90;;;;;;5052027;28;21178;-67
2022/11/01 09:57:35;;;;;;;6.60;1.70;;;15.40;99.90;;;;;;5051264;28;21055;-67
2022/11/01 10:00:07;;;;;;;3.50;1.80;;;15.50;99.90;;;;;;5040273;28;20606;-67
2022/11/01 10:03:06;;;;;;;4.63;2.10;;;15.50;99.90;;;;;;5050594;28;20637;-67
2022/11/01 10:05:50;;;;;;;7.27;2.00;;;15.60;99.90;;;;;;5050498;28;21242;-68
2022/11/01 10:08:35;;;;;;;9.30;2.47;;;15.90;99.90;;;;;;5047835;28;20626;-68
2022/11/01 10:11:29;;;;;;;2.10;1.77;;;15.90;99.90;;;;;;5052480;28;20664;-68
2022/11/01 10:14:08;;;;;;;3.17;1.60;;;15.90;99.90;;;;;;5052508;28;20599;-69
2022/11/01 10:16:40;;;;;;;4.77;1.90;;;15.80;99.90;;;;;;5046284;28;20632;-68
2022/11/01 10:19:13;;;;;;;5.30;2.40;;;15.90;99.90;;;;;;5052491;28;20595;-68
2022/11/01 10:21:46;;;;;;;5.20;2.40;;;15.70;99.90;;;;;;5053065;28;21051;-68
2022/11/01 10:24:21;;;;;;;5.17;1.77;;;15.70;99.90;;;;;;5051429;28;20700;-68
2022/11/01 10:26:53;;;;;;;5.80;1.70;;;15.60;99.90;;;;;;5048298;28;21227;-67
2022/11/01 10:29:30;;;;;;;6.00;1.60;;;15.60;99.90;;;;;;5044219;28;20750;-68
2022/11/01 10:31:59;;;;;;;4.90;2.10;;;15.50;99.90;;;;;;5048998;28;20625;-69
2022/11/01 10:34:33;;;;;;;3.93;1.70;;;15.50;99.90;;;;;;5053379;28;20627;-68
2022/11/01 10:37:17;;;;;;;2.80;1.50;;;15.60;99.90;;;;;;5053162;28;21207;-68
2022/11/01 10:39:54;;;;;;;6.57;1.47;;;15.70;99.90;;;;;;5053648;28;20629;-68
2022/11/01 10:42:22;;;;;;;2.90;1.40;;;15.90;99.90;;;;;;5052831;28;20649;-68
2022/11/01 10:44:54;;;;;;;6.10;1.43;;;15.90;99.90;;;;;;5053682;28;20609;-68
2022/11/01 10:47:24;;;;;;;4.40;1.43;;;16.00;99.90;;;;;;5053367;28;20618;-68
2022/11/01 10:49:57;;;;;;;4.20;1.53;;;16.10;99.90;;;;;;5053353;28;20666;-68
2022/11/01 10:52:31;;;;;;;2.23;1.43;;;16.30;99.90;;;;;;5051223;28;20629;-68
2022/11/01 10:55:02;;;;;;;5.53;1.63;;;16.70;99.90;;;;;;5052192;28;21142;-68
2022/11/01 10:57:36;;;;;;;6.23;1.67;;;17.00;99.90;;;;;;5052892;28;20655;-69
2022/11/01 11:00:10;;;;;;;4.87;1.73;;;16.90;99.90;;;;;;5053038;28;20611;-68
2022/11/01 11:02:42;;;;;;;2.90;1.67;;;17.10;99.90;;;;;;5053433;28;20710;-68
2022/11/01 11:05:14;;;;;;;5.10;1.80;;;17.10;99.90;;;;;;5053666;28;20607;-68
2022/11/01 11:07:42;;;;;;;3.23;1.43;;;17.30;99.90;;;;;;5053866;28;20670;-68
2022/11/01 11:10:19;;;;;;;2.70;1.67;;;17.20;99.90;;;;;;5054727;28;21243;-67
2022/11/01 11:12:50;;;;;;;3.50;1.47;;;17.50;99.90;;;;;;5053584;28;20603;-67
2022/11/01 11:15:22;;;;;;;2.20;1.40;;;17.50;99.90;;;;;;5054008;28;20637;-67
2022/11/01 11:17:54;;;;;;;3.63;1.60;;;17.70;99.90;;;;;;5054383;28;20578;-67
2022/11/01 11:20:25;;;;;;;2.03;1.30;;;17.90;99.90;;;;;;5053814;28;20615;-67
2022/11/01 11:22:54;;;;;;;3.43;1.23;;;18.00;99.90;;;;;;5054074;28;20606;-67
2022/11/01 11:25:28;;;;;;;3.30;1.53;;;18.20;99.90;;;;;;5053604;28;20634;-67
2022/11/01 11:27:56;;;;;;;4.67;1.60;;;18.60;99.90;;;;;;5053395;28;20603;-67
2022/11/01 11:30:28;;;;;;;2.87;1.27;;;17.90;99.90;;;;;;5052136;28;20713;-67
2022/11/01 11:32:57;;;;;;;4.77;1.80;;;17.90;99.90;;;;;;5034088;28;20587;-67
2022/11/01 11:35:30;;;;;;;4.97;1.70;;;18.20;99.90;;;;;;5042581;28;20647;-67
2022/11/01 11:37:59;;;;;;;3.33;1.70;;;17.70;99.90;;;;;;5053099;28;21067;-67
2022/11/01 11:40:29;;;;;;;5.07;2.03;;;17.40;99.90;;;;;;5053493;28;20646;-67
2022/11/01 11:43:22;;;;;;;5.07;1.83;;;17.40;99.90;;;;;;5052915;28;20614;-67
2022/11/01 11:46:05;;;;;;;5.50;2.37;;;18.10;99.90;;;;;;5051102;28;20676;-67
2022/11/01 11:48:33;;;;;;;3.50;1.83;;;18.30;99.90;;;;;;5049618;28;20610;-67
2022/11/01 11:51:05;;;;;;;2.03;1.60;;;18.10;99.90;;;;;;5053030;28;21028;-69
2022/11/01 11:53:34;;;;;;;3.93;2.43;;;17.90;99.90;;;;;;5053266;28;20611;-68
2022/11/01 11:56:05;;;;;;;7.83;2.00;;;18.30;99.90;;;;;;5052923;28;20635;-68
2022/11/01 11:58:36;;;;;;;6.57;2.17;;;17.70;99.90;;;;;;5051622;28;20606;-69
2022/11/01 12:01:06;;;;;;;3.53;1.57;;;17.60;99.90;;;;;;5052667;28;20595;-68
2022/11/01 12:03:44;;;;;;;2.70;1.70;;;17.90;99.90;;;;;;5048042;28;21169;-68
2022/11/01 12:06:19;;;;;;;9.43;2.03;;;17.80;99.90;;;;;;5050540;28;21057;-68
2022/11/01 12:08:49;;;;;;;5.53;1.80;;;18.00;99.90;;;;;;5036060;28;20679;-68
2022/11/01 12:11:17;;;;;;;5.33;1.50;;;18.00;99.90;;;;;;5045524;28;20669;-68
2022/11/01 12:14:00;;;;;;;2.50;1.80;;;18.30;99.90;;;;;;5052490;28;20623;-68
2022/11/01 12:16:28;;;;;;;5.07;2.00;;;18.40;99.90;;;;;;5052525;28;20635;-68
2022/11/01 12:18:58;;;;;;;2.67;1.60;;;18.00;99.90;;;;;;5053854;28;20607;-68
2022/11/01 12:21:32;;;;;;;4.67;1.70;;;18.50;99.90;;;;;;5052993;28;20623;-68
2022/11/01 12:24:06;;;;;;;8.50;2.40;;;18.50;99.90;;;;;;5066240;28;20608;-68
2022/11/01 12:26:36;;;;;;;5.13;2.17;;;18.80;99.90;;;;;;5064998;28;20619;-68
2022/11/01 12:29:15;;;;;;;5.03;2.10;;;19.00;99.90;;;;;;5043405;28;20616;-69
2022/11/01 12:31:44;;;;;;;5.30;2.50;;;18.80;99.90;;;;;;5047013;28;20650;-67
2022/11/01 12:34:19;;;;;;;3.70;2.43;;;18.90;99.90;;;;;;5064332;28;20694;-67
2022/11/01 12:36:53;;;;;;;3.57;1.90;;;18.50;99.90;;;;;;5051615;28;20618;-67
2022/11/01 12:39:40;;;;;;;8.00;2.67;;;18.70;99.90;;;;;;5042327;28;20615;-67
2022/11/01 12:42:12;;;;;;;3.10;2.43;;;19.10;99.90;;;;;;5032515;28;20711;-68
2022/11/01 12:44:43;;;;;;;6.10;2.30;;;19.00;99.90;;;;;;5036585;28;21039;-68
2022/11/01 12:47:17;;;;;;;5.07;2.23;;;19.30;99.90;;;;;;5032515;28;20665;-68
2022/11/01 12:49:49;;;;;;;4.70;2.60;;;19.40;99.90;;;;;;5048204;28;20622;-68
2022/11/01 12:52:27;;;;;;;5.13;2.40;;;19.30;99.90;;;;;;5064770;28;21030;-68
2022/11/01 12:55:06;;;;;;;3.73;2.60;;;19.60;99.90;;;;;;5049836;28;20611;-68
2022/11/01 12:57:35;;;;;;;7.40;2.70;;;20.20;99.90;;;;;;5045708;28;20658;-69
2022/11/01 13:00:05;;;;;;;6.57;2.97;;;20.60;99.90;;;;;;5036520;28;20639;-68
2022/11/01 13:02:48;;;;;;;3.63;2.70;;;21.10;99.90;;;;;;5039621;28;20615;-68
2022/11/01 13:05:20;;;;;;;5.83;2.50;;;20.70;99.90;;;;;;5045383;28;20620;-68